Time;durP1;ratioP1;P1;durP2;ratioP2;P2;SDS_P1;SDS_P2;PMS_P1;PMS_P2;Temp;Humidity;BMP_temperature;BMP_pressure;BME280_temperature;BME280_humidity;BME280_pressure;Samples;Min_cycle;Max_cycle;Signal;HPM_P1;HPM_P2
2023/09/28 00:00:38;;;;;;;10.73;7.28;;;;;;;13.98;72.83;97997.22;10241832;28;20001;-51
2023/09/28 00:05:38;;;;;;;16.33;8.52;;;;;;;13.91;73.53;97999.88;10242541;28;20121;-51
2023/09/28 00:10:37;;;;;;;17.92;8.02;;;;;;;13.77;74.21;97989.59;10241902;28;20072;-49
2023/09/28 00:15:37;;;;;;;;;;;;;;;13.71;74.30;97997.50;10242996;28;20105;-48
2023/09/28 00:20:36;;;;;;;12.88;7.13;;;;;;;13.23;74.71;97934.44;10223851;28;20009;-50
2023/09/28 00:25:35;;;;;;;12.95;7.03;;;;;;;13.49;75.26;98002.00;10242022;28;20022;-51
2023/09/28 00:30:33;;;;;;;10.75;6.93;;;;;;;13.42;75.17;98006.41;10241355;28;20041;-50
2023/09/28 00:35:32;;;;;;;;;;;;;;;13.24;76.50;98007.41;10242117;28;20038;-49
2023/09/28 00:40:31;;;;;;;11.15;7.10;;;;;;;13.13;77.53;98010.09;10241701;28;20036;-49
2023/09/28 00:45:30;;;;;;;13.68;8.50;;;;;;;13.05;77.51;98011.91;10240385;28;20105;-53
2023/09/28 00:50:32;;;;;;;;;;;;;;;12.97;77.43;98018.88;10241011;28;20065;-52
2023/09/28 00:55:32;;;;;;;15.00;8.68;;;;;;;12.85;77.76;98003.34;10241134;28;20488;-51
2023/09/28 01:00:33;;;;;;;15.43;9.00;;;;;;;12.89;77.37;98011.13;10240380;28;20118;-53
2023/09/28 01:05:39;;;;;;;15.88;9.13;;;;;;;12.85;77.39;98008.56;10239534;28;20066;-53
2023/09/28 01:10:42;;;;;;;18.25;10.30;;;;;;;12.72;77.78;97982.59;10239851;28;20070;-53
2023/09/28 01:15:43;;;;;;;16.95;9.45;;;;;;;12.79;77.76;98011.19;10240095;28;20121;-50
2023/09/28 01:20:47;;;;;;;20.48;10.07;;;;;;;12.73;78.06;98012.94;10238456;28;20591;-53
2023/09/28 01:25:49;;;;;;;17.85;10.13;;;;;;;12.69;78.58;98019.03;10240128;28;20069;-53
2023/09/28 01:30:49;;;;;;;16.05;9.57;;;;;;;12.31;78.58;97951.56;10239486;28;20065;-51
2023/09/28 01:35:48;;;;;;;16.15;9.75;;;;;;;12.67;78.91;98025.13;10239457;28;20073;-50
2023/09/28 01:40:48;;;;;;;15.38;9.35;;;;;;;12.66;79.22;98016.47;10239886;28;20407;-50
2023/09/28 01:45:47;;;;;;;17.02;9.80;;;;;;;12.65;79.58;98006.94;10239613;28;20060;-48
2023/09/28 01:50:46;;;;;;;14.95;9.65;;;;;;;12.58;79.80;98013.06;10238288;28;20046;-49
2023/09/28 01:55:47;;;;;;;18.83;10.30;;;;;;;12.54;79.89;98008.72;10238685;28;20118;-51
2023/09/28 02:00:46;;;;;;;14.25;9.68;;;;;;;12.50;79.96;98005.25;10239710;28;20105;-50
2023/09/28 02:05:45;;;;;;;14.38;9.40;;;;;;;12.52;79.81;98000.03;10221464;28;20034;-51
2023/09/28 02:10:44;;;;;;;18.80;9.38;;;;;;;12.51;80.24;98004.41;10244883;28;20101;-51
2023/09/28 02:15:43;;;;;;;;;;;;;;;12.51;80.18;97993.13;10247337;28;20158;-50
2023/09/28 02:20:42;;;;;;;15.32;10.27;;;;;;;12.53;80.71;98004.38;10246413;28;20017;-49
2023/09/28 02:25:41;;;;;;;16.08;9.82;;;;;;;12.41;80.89;98007.03;10246559;28;20068;-49
2023/09/28 02:30:40;;;;;;;15.98;9.32;;;;;;;12.34;81.09;98000.13;10246024;28;20030;-49
2023/09/28 02:35:39;;;;;;;18.17;9.55;;;;;;;12.32;80.54;98009.69;10245706;28;20549;-50
2023/09/28 02:40:38;;;;;;;15.75;8.20;;;;;;;12.24;80.78;98012.28;10246015;28;20460;-51
2023/09/28 02:45:37;;;;;;;27.33;10.38;;;;;;;12.26;80.67;98019.22;10245649;28;20038;-49
2023/09/28 02:50:36;;;;;;;19.60;10.20;;;;;;;12.20;81.63;98037.44;10245099;28;20034;-49
2023/09/28 02:55:35;;;;;;;20.90;10.27;;;;;;;12.25;81.62;98027.91;10246054;28;20036;-51
2023/09/28 03:00:35;;;;;;;16.00;9.82;;;;;;;12.15;81.32;98005.34;10244623;28;20117;-49
2023/09/28 03:05:34;;;;;;;;;;;;;;;12.38;81.47;98039.16;10245204;28;20474;-48
2023/09/28 03:10:33;;;;;;;16.57;8.83;;;;;;;12.42;81.64;98032.22;10245548;28;20365;-49
2023/09/28 03:15:33;;;;;;;11.73;6.97;;;;;;;12.55;81.15;98038.22;10244093;28;20925;-49
2023/09/28 03:20:31;;;;;;;11.82;7.45;;;;;;;12.45;81.05;98045.19;10243213;28;20116;-49
2023/09/28 03:25:30;;;;;;;15.60;8.35;;;;;;;12.34;80.48;98055.63;10244331;28;20477;-50
2023/09/28 03:30:30;;;;;;;12.07;7.30;;;;;;;12.24;80.86;98057.38;10243661;28;20113;-50
2023/09/28 03:35:30;;;;;;;17.02;8.13;;;;;;;12.11;81.19;98058.28;10243724;28;20137;-51
2023/09/28 03:40:35;;;;;;;12.48;8.05;;;;;;;12.23;80.65;98054.78;10243304;28;20129;-51
2023/09/28 03:45:34;;;;;;;17.75;7.90;;;;;;;12.47;80.44;98053.88;10243610;28;20358;-51
2023/09/28 03:50:33;;;;;;;17.15;8.40;;;;;;;12.66;80.04;98055.50;10242980;28;20130;-52
2023/09/28 03:55:32;;;;;;;14.95;7.85;;;;;;;12.70;79.57;98062.44;10243212;28;20030;-51
2023/09/28 04:00:31;;;;;;;14.43;8.70;;;;;;;12.62;79.60;98064.22;10243302;28;20038;-52
2023/09/28 04:05:31;;;;;;;13.70;8.35;;;;;;;12.60;79.80;98068.59;10242980;28;20113;-50
2023/09/28 04:10:30;;;;;;;14.27;7.68;;;;;;;12.64;79.93;98072.03;10241995;28;20497;-51
2023/09/28 04:15:29;;;;;;;;;;;;;;;12.71;79.90;98068.50;10243718;28;20082;-51
2023/09/28 04:20:27;;;;;;;19.02;9.25;;;;;;;12.67;79.86;98049.44;10242132;28;20397;-52
2023/09/28 04:25:29;;;;;;;;;;;;;;;12.87;79.94;98070.16;10242187;28;20480;-50
2023/09/28 04:30:27;;;;;;;16.05;7.95;;;;;;;13.07;79.73;98083.09;10240636;28;20393;-52
2023/09/28 04:35:26;;;;;;;;;;;;;;;13.29;79.37;98082.97;10237521;28;20486;-51
2023/09/28 04:40:25;;;;;;;18.58;10.52;;;;;;;13.45;78.92;98081.13;10240459;28;19913;-49
2023/09/28 04:45:24;;;;;;;;;;;;;;;13.50;77.59;98082.81;10240713;28;20081;-51
2023/09/28 04:50:23;;;;;;;17.75;9.23;;;;;;;13.49;77.05;98075.88;10238320;28;19936;-52
2023/09/28 04:55:23;;;;;;;15.95;9.35;;;;;;;13.50;76.42;98093.25;10238375;28;20030;-51
2023/09/28 05:00:22;;;;;;;13.45;9.63;;;;;;;13.40;76.04;98086.38;10238902;28;20958;-49
2023/09/28 05:05:21;;;;;;;;;;;;;;;13.33;76.56;98089.91;10239506;28;20752;-49
2023/09/28 05:10:19;;;;;;;16.30;10.00;;;;;;;13.43;76.25;98101.97;10242216;28;19961;-52
2023/09/28 05:15:18;;;;;;;;;;;;;;;13.44;76.17;98103.69;10240489;28;20038;-51
2023/09/28 05:20:17;;;;;;;16.20;9.95;;;;;;;13.60;76.44;98101.03;10235180;28;19921;-51
2023/09/28 05:25:16;;;;;;;12.98;9.10;;;;;;;13.61;76.02;98071.44;10236944;28;20507;-50
2023/09/28 05:30:15;;;;;;;;;;;;;;;13.99;75.43;98103.31;10235535;28;20556;-50
2023/09/28 05:35:15;;;;;;;14.45;8.05;;;;;;;14.15;74.08;98109.25;10240016;28;19972;-48
2023/09/28 05:40:14;;;;;;;17.58;8.95;;;;;;;14.28;73.86;98106.50;10242042;28;20074;-50
2023/09/28 05:45:12;;;;;;;;;;;;;;;14.49;72.56;98116.72;10245519;28;20116;-50
2023/09/28 05:50:11;;;;;;;18.75;8.98;;;;;;;14.76;72.34;98118.19;10239589;28;19913;-50
2023/09/28 05:55:11;;;;;;;14.55;9.25;;;;;;;15.02;71.27;98122.25;10242506;28;20817;-50
2023/09/28 06:00:10;;;;;;;18.00;8.90;;;;;;;15.21;69.94;98125.47;10243071;28;20066;-50
2023/09/28 06:05:10;;;;;;;14.40;9.23;;;;;;;15.36;68.88;98121.75;10240388;28;20066;-51
2023/09/28 06:10:09;;;;;;;20.75;9.18;;;;;;;15.35;68.25;98093.91;10241371;28;20528;-49
2023/09/28 06:15:09;;;;;;;23.17;10.65;;;;;;;15.68;68.62;98121.28;10242553;28;20126;-57
2023/09/28 06:20:08;;;;;;;21.65;10.05;;;;;;;15.73;68.41;98124.69;10244443;28;20078;-52
2023/09/28 06:25:08;;;;;;;23.77;9.75;;;;;;;15.65;69.05;98130.06;10245910;28;20062;-54
2023/09/28 06:30:09;;;;;;;17.27;9.05;;;;;;;15.70;69.45;98131.75;10228298;28;20069;-52
2023/09/28 06:35:09;;;;;;;17.33;8.77;;;;;;;15.83;69.11;98128.06;10243932;28;20081;-52
2023/09/28 06:40:08;;;;;;;19.30;9.02;;;;;;;15.99;69.08;98112.97;10245503;28;20074;-53
2023/09/28 06:45:07;;;;;;;18.88;8.73;;;;;;;16.17;67.51;98101.31;10245688;28;20057;-51
2023/09/28 06:50:07;;;;;;;19.60;8.68;;;;;;;16.50;66.54;98118.16;10244961;28;20070;-51
2023/09/28 06:55:07;;;;;;;18.13;8.70;;;;;;;16.47;65.97;98113.84;10248973;28;20062;-51
2023/09/28 07:00:09;;;;;;;18.55;8.27;;;;;;;16.76;65.38;98130.75;10251821;28;20113;-51
2023/09/28 07:05:08;;;;;;;18.27;8.63;;;;;;;16.99;64.92;98126.84;10252844;28;20525;-52
2023/09/28 07:10:10;;;;;;;24.55;11.52;;;;;;;17.20;64.26;98121.13;10253103;28;20676;-49
2023/09/28 07:15:09;;;;;;;20.08;10.18;;;;;;;17.73;63.32;98136.53;10253521;28;20065;-50
2023/09/28 07:20:09;;;;;;;20.85;9.13;;;;;;;18.12;61.30;98133.88;10253434;28;20081;-51
2023/09/28 07:25:09;;;;;;;17.75;9.52;;;;;;;18.26;60.67;98136.16;10252232;28;20070;-50
2023/09/28 07:30:08;;;;;;;26.45;9.50;;;;;;;18.52;59.41;98131.06;10252410;28;20081;-52
2023/09/28 07:35:11;;;;;;;18.23;8.68;;;;;;;18.51;58.15;98084.69;10252412;28;20088;-52
2023/09/28 07:40:12;;;;;;;17.63;8.63;;;;;;;19.18;57.44;98145.03;10252534;28;20490;-51
2023/09/28 07:45:12;;;;;;;16.08;7.57;;;;;;;19.24;54.09;98136.09;10251329;28;20089;-51
2023/09/28 07:50:14;;;;;;;26.92;10.90;;;;;;;19.55;54.77;98140.41;10249782;28;20065;-52
2023/09/28 07:55:14;;;;;;;19.08;8.27;;;;;;;19.75;52.57;98118.78;10250430;28;20097;-52
2023/09/28 08:00:13;;;;;;;13.68;6.45;;;;;;;20.17;49.50;98132.31;10251335;28;20101;-52
2023/09/28 08:05:12;;;;;;;10.85;5.93;;;;;;;20.38;47.78;98135.13;10249838;28;20082;-52
2023/09/28 08:10:11;;;;;;;14.32;5.43;;;;;;;20.70;47.04;98124.34;10250283;28;20026;-52
2023/09/28 08:15:10;;;;;;;10.38;5.22;;;;;;;21.11;46.15;98121.94;10251500;28;20129;-53
2023/09/28 08:20:11;;;;;;;14.07;5.35;;;;;;;21.45;44.74;98123.31;10251022;28;20177;-51
2023/09/28 08:25:10;;;;;;;10.15;5.32;;;;;;;21.68;43.98;98126.81;10237500;28;20088;-52
2023/09/28 08:30:10;;;;;;;15.23;5.10;;;;;;;21.48;43.67;98088.00;10249773;28;20066;-53
2023/09/28 08:35:11;;;;;;;15.73;7.70;;;;;;;21.62;43.39;98124.44;10250447;28;20065;-54
2023/09/28 08:40:10;;;;;;;21.15;11.57;;;;;;;21.31;42.80;98076.34;10250216;28;20092;-52
2023/09/28 08:45:13;;;;;;;14.48;7.75;;;;;;;21.48;42.86;98119.72;10250546;28;20061;-51
2023/09/28 08:50:15;;;;;;;14.43;6.72;;;;;;;21.42;42.68;98119.94;10249329;28;20085;-53
2023/09/28 08:55:14;;;;;;;14.55;5.57;;;;;;;21.32;42.77;98127.34;10249710;28;20070;-52
2023/09/28 09:00:14;;;;;;;10.63;5.65;;;;;;;21.44;43.53;98118.09;10249740;28;20512;-51
2023/09/28 09:05:13;;;;;;;12.23;4.95;;;;;;;21.83;42.97;98120.03;10249075;28;20078;-53
2023/09/28 09:10:16;;;;;;;22.05;5.55;;;;;;;21.79;42.51;98113.19;10249587;28;20485;-54
2023/09/28 09:15:15;;;;;;;13.07;5.10;;;;;;;21.92;42.66;98109.09;10248423;28;20738;-53
2023/09/28 09:20:15;;;;;;;9.68;4.97;;;;;;;22.14;42.52;98098.53;10246636;28;20065;-52
2023/09/28 09:25:15;;;;;;;11.90;5.60;;;;;;;21.99;42.96;98096.53;10247542;28;20077;-52
2023/09/28 09:30:14;;;;;;;13.00;6.05;;;;;;;22.05;42.59;98088.34;10246322;28;20070;-52
2023/09/28 09:35:13;;;;;;;12.95;5.15;;;;;;;22.12;42.55;98084.53;10246836;28;20484;-53
2023/09/28 09:46:16;;;;;;;14.13;5.50;;;;;;;21.52;43.82;98074.63;10234230;28;20066;-53
2023/09/28 09:51:23;;;;;;;9.43;5.32;;;;;;;21.55;44.17;98077.13;10227490;28;20066;-51
2023/09/28 09:56:22;;;;;;;23.13;10.35;;;;;;;21.64;44.47;98068.00;10212459;28;21391;-52
2023/09/28 10:01:22;;;;;;;18.00;6.57;;;;;;;21.96;44.65;98061.34;10232571;28;20072;-51
